Terminal Aerodrome Forecast
Issued by NWS

Home | Current Version | Previous Version | Text Only | Print | Product List | Glossary Off
Versions: 1 2 3 4 5 6 7 8 9 10 11 12 13 14 15

000
FTUS43 KIWX 031700 RRA
TAFSBN
TAF
KSBN 031739Z 0318/0418 19015G22KT 2SM -DZ BR OVC006 WS020/23045KT
     FM032000 22016G24KT 1 1/2SM -RA BR OVC004
     FM040100 27012G18KT P6SM -SHSN OVC012
     FM040800 31010KT 6SM -SHSN BKN020=

USA.gov is the U.S. government's official web portal to all federal, state and local government web resources and services.